Time;durP1;ratioP1;P1;durP2;ratioP2;P2;SDS_P1;SDS_P2;PMS_P1;PMS_P2;Temp;Humidity;BMP_temperature;BMP_pressure;BME280_temperature;BME280_humidity;BME280_pressure;Samples;Min_cycle;Max_cycle;Signal;HPM_P1;HPM_P2
2022/08/05 00:00:05;;;;;;;27.70;21.55;;;24.20;67.00;;;;;;5033962;28;20013;-83
2022/08/05 00:02:31;;;;;;;28.07;21.43;;;24.20;67.00;;;;;;5035074;28;20044;-83
2022/08/05 00:04:57;;;;;;;28.52;20.50;;;24.20;67.10;;;;;;5034062;28;20021;-82
2022/08/05 00:07:23;;;;;;;27.35;21.30;;;24.20;67.30;;;;;;5026446;28;20053;-84
2022/08/05 00:09:49;;;;;;;22.93;20.53;;;24.20;67.40;;;;;;5032740;28;20105;-83
2022/08/05 00:12:15;;;;;;;28.38;21.73;;;24.10;67.50;;;;;;5033480;28;20278;-82
2022/08/05 00:14:41;;;;;;;26.65;21.45;;;24.10;67.70;;;;;;5033870;28;20017;-84
2022/08/05 00:17:07;;;;;;;29.70;21.55;;;24.00;67.90;;;;;;5033699;28;20022;-83
2022/08/05 00:19:32;;;;;;;27.10;19.92;;;24.00;68.00;;;;;;5015719;28;20036;-83
2022/08/05 00:21:58;;;;;;;25.00;21.00;;;23.90;68.30;;;;;;5033204;28;20116;-83
2022/08/05 00:24:24;;;;;;;31.63;22.52;;;23.90;68.60;;;;;;5033543;28;20082;-82
2022/08/05 00:26:50;;;;;;;27.38;21.10;;;23.90;68.40;;;;;;5015920;28;20486;-83
2022/08/05 00:29:16;;;;;;;27.27;22.58;;;23.90;68.60;;;;;;5033854;28;20025;-83
2022/08/05 00:31:42;;;;;;;25.52;20.88;;;23.90;68.60;;;;;;5005783;28;20567;-82
2022/08/05 00:34:08;;;;;;;38.15;20.48;;;23.90;68.70;;;;;;5033574;28;20029;-82
2022/08/05 00:36:35;;;;;;;27.63;21.05;;;23.90;68.70;;;;;;5033490;28;20049;-83
2022/08/05 00:39:01;;;;;;;28.20;20.98;;;23.90;68.60;;;;;;5017342;28;20354;-83
2022/08/05 00:41:32;;;;;;;28.98;21.00;;;23.90;68.50;;;;;;5017267;28;20034;-83
2022/08/05 00:43:58;;;;;;;28.90;20.95;;;23.90;68.60;;;;;;5020293;28;20032;-81
2022/08/05 00:46:24;;;;;;;26.52;21.15;;;23.90;68.70;;;;;;5030156;28;20022;-83
2022/08/05 00:48:51;;;;;;;26.83;21.15;;;23.90;68.80;;;;;;5031006;28;20070;-82
2022/08/05 00:51:17;;;;;;;27.77;19.70;;;23.90;68.70;;;;;;5032966;28;20056;-83
2022/08/05 00:53:43;;;;;;;24.47;20.07;;;23.90;68.60;;;;;;5032277;28;20029;-81
2022/08/05 00:56:09;;;;;;;28.40;21.60;;;23.90;68.60;;;;;;5032760;28;20740;-82
2022/08/05 00:58:35;;;;;;;28.40;20.50;;;23.90;68.60;;;;;;5032451;28;20025;-83
2022/08/05 01:01:01;;;;;;;28.70;22.07;;;24.00;68.70;;;;;;5032376;28;20116;-82
2022/08/05 01:03:29;;;;;;;25.95;21.23;;;23.90;68.80;;;;;;5032582;28;20033;-82
2022/08/05 01:05:54;;;;;;;;;;;24.00;68.70;;;;;;5033392;28;20061;-81
2022/08/05 01:08:21;;;;;;;27.50;20.40;;;24.00;68.10;;;;;;5033420;28;19905;-82
2022/08/05 01:11:01;;;;;;;26.83;21.95;;;24.00;68.80;;;;;;5032533;28;20057;-82
2022/08/05 01:13:46;;;;;;;28.23;21.38;;;24.00;68.80;;;;;;5032257;28;20506;-81
2022/08/05 01:16:21;;;;;;;26.95;21.55;;;24.00;68.80;;;;;;5031960;28;20025;-82
2022/08/05 01:18:53;;;;;;;25.85;21.60;;;24.00;69.00;;;;;;5032019;28;20017;-82
2022/08/05 01:21:48;;;;;;;26.35;21.30;;;24.00;69.00;;;;;;5030315;28;20030;-82
2022/08/05 01:24:49;;;;;;;26.92;20.98;;;24.00;68.70;;;;;;5031884;28;20792;-82
2022/08/05 01:27:31;;;;;;;27.05;22.50;;;23.90;68.80;;;;;;5024600;28;20402;-81
2022/08/05 01:30:03;;;;;;;27.67;22.40;;;23.80;69.30;;;;;;5032100;28;20017;-82
2022/08/05 01:32:33;;;;;;;28.48;21.38;;;23.70;69.80;;;;;;5031938;28;20025;-81
2022/08/05 01:35:03;;;;;;;23.98;21.42;;;23.60;70.10;;;;;;5031766;28;20096;-81
2022/08/05 01:37:50;;;;;;;34.25;22.40;;;23.60;70.40;;;;;;5031968;28;20053;-82
2022/08/05 01:40:18;;;;;;;27.60;22.70;;;23.50;70.40;;;;;;5026589;28;20028;-81
2022/08/05 01:42:45;;;;;;;30.15;22.40;;;23.50;70.80;;;;;;5032775;28;20025;-81
2022/08/05 01:45:12;;;;;;;;;;;23.50;71.10;;;;;;5031867;28;20112;-82
2022/08/05 01:47:39;;;;;;;28.85;22.70;;;23.40;70.20;;;;;;5031564;28;19938;-82
2022/08/05 01:50:09;;;;;;;27.02;23.20;;;23.30;71.10;;;;;;5031501;28;20025;-82
2022/08/05 01:52:37;;;;;;;30.30;22.55;;;23.30;71.40;;;;;;5029633;28;20518;-81
2022/08/05 01:55:05;;;;;;;;;;;23.30;71.80;;;;;;5031850;28;20086;-81
2022/08/05 01:57:36;;;;;;;25.50;22.02;;;23.30;71.00;;;;;;5031561;28;19988;-82
2022/08/05 02:00:03;;;;;;;25.38;21.98;;;23.20;72.00;;;;;;5031486;28;20021;-81
2022/08/05 02:02:32;;;;;;;27.40;21.85;;;23.20;72.50;;;;;;5031634;28;20065;-82
2022/08/05 02:05:07;;;;;;;31.95;23.45;;;23.20;72.50;;;;;;5031350;28;20014;-83
2022/08/05 02:07:35;;;;;;;26.40;21.92;;;23.30;72.50;;;;;;5022989;28;20029;-82
2022/08/05 02:10:03;;;;;;;29.27;22.50;;;23.30;72.40;;;;;;5031241;28;20030;-82
2022/08/05 02:13:12;;;;;;;26.23;21.85;;;23.30;72.40;;;;;;5031620;28;20029;-83
2022/08/05 02:15:46;;;;;;;28.25;22.42;;;23.40;72.00;;;;;;4979218;28;20027;-80
2022/08/05 02:18:49;;;;;;;26.63;22.15;;;23.40;72.20;;;;;;4964308;28;20053;-83
2022/08/05 02:21:29;;;;;;;29.88;23.70;;;23.50;71.80;;;;;;4950922;28;20074;-81
2022/08/05 02:24:00;;;;;;;28.92;22.17;;;23.50;71.80;;;;;;4972399;28;20926;-81
2022/08/05 02:26:42;;;;;;;29.67;23.40;;;23.50;71.80;;;;;;4980434;28;20070;-82
2022/08/05 02:29:11;;;;;;;26.30;23.48;;;23.60;71.60;;;;;;4982739;28;20093;-83
2022/08/05 02:31:39;;;;;;;31.20;24.58;;;23.60;71.50;;;;;;4981137;28;20022;-81
2022/08/05 02:34:10;;;;;;;32.47;23.35;;;23.60;71.50;;;;;;4986117;28;20061;-81
2022/08/05 02:36:41;;;;;;;34.80;22.90;;;23.60;71.50;;;;;;4985572;28;20054;-83
2022/08/05 02:39:09;;;;;;;37.20;25.30;;;23.60;71.60;;;;;;4988825;28;20113;-81
2022/08/05 02:41:36;;;;;;;40.88;25.23;;;23.60;71.80;;;;;;4990437;28;20049;-81
2022/08/05 02:44:02;;;;;;;;;;;23.60;72.00;;;;;;4992319;28;20027;-81
2022/08/05 02:46:29;;;;;;;28.70;22.90;;;23.60;71.40;;;;;;5008413;28;19980;-82
2022/08/05 02:48:56;;;;;;;34.10;23.27;;;23.50;72.20;;;;;;5035237;28;20100;-83
2022/08/05 02:51:25;;;;;;;30.90;24.77;;;23.50;72.90;;;;;;5034427;28;20270;-82
2022/08/05 02:53:52;;;;;;;28.02;23.58;;;23.50;72.30;;;;;;5035018;28;20104;-81
2022/08/05 02:56:18;;;;;;;37.25;25.23;;;23.50;72.20;;;;;;5030415;28;20120;-81
2022/08/05 02:58:45;;;;;;;34.50;25.80;;;23.50;72.20;;;;;;5035723;28;20017;-81
2022/08/05 03:01:16;;;;;;;27.92;24.38;;;23.60;72.30;;;;;;5035942;28;20039;-82
2022/08/05 03:03:44;;;;;;;29.15;25.00;;;23.60;72.10;;;;;;5034742;28;20040;-81
2022/08/05 03:06:11;;;;;;;36.30;25.63;;;23.50;71.90;;;;;;5034914;28;20562;-83
2022/08/05 03:08:40;;;;;;;32.40;25.70;;;23.50;72.00;;;;;;5034667;28;20029;-82
2022/08/05 03:11:23;;;;;;;36.78;25.63;;;23.50;72.30;;;;;;5034350;28;20038;-82
2022/08/05 03:13:51;;;;;;;40.60;25.65;;;23.50;72.20;;;;;;5032319;28;20029;-82
2022/08/05 03:16:17;;;;;;;38.05;26.77;;;23.50;72.40;;;;;;5034484;28;20363;-82
2022/08/05 03:18:43;;;;;;;32.58;26.52;;;23.50;72.20;;;;;;5034468;28;20438;-81
2022/08/05 03:21:09;;;;;;;29.67;26.10;;;23.50;72.40;;;;;;5033594;28;20112;-83
2022/08/05 03:23:37;;;;;;;34.33;26.15;;;23.50;73.00;;;;;;5034396;28;20037;-81
2022/08/05 03:26:03;;;;;;;32.80;27.45;;;23.60;72.40;;;;;;5034160;28;20041;-82
2022/08/05 03:28:30;;;;;;;32.63;27.95;;;23.60;72.30;;;;;;5034132;28;20432;-82
2022/08/05 03:30:58;;;;;;;31.23;26.80;;;23.60;72.20;;;;;;5034471;28;20411;-81
2022/08/05 03:33:26;;;;;;;42.08;27.95;;;23.70;72.20;;;;;;5034160;28;20083;-82
2022/08/05 03:35:54;;;;;;;39.40;28.70;;;23.70;72.10;;;;;;5034122;28;20029;-82
2022/08/05 03:38:21;;;;;;;39.05;26.35;;;23.70;72.10;;;;;;5034320;28;20433;-82
2022/08/05 03:40:47;;;;;;;36.80;27.42;;;23.70;72.20;;;;;;5034733;28;20501;-82
2022/08/05 03:43:15;;;;;;;39.72;26.88;;;23.80;72.10;;;;;;5040350;28;20107;-82
2022/08/05 03:45:40;;;;;;;35.10;26.73;;;23.90;71.90;;;;;;5034811;28;20107;-82
2022/08/05 03:48:09;;;;;;;38.40;26.30;;;23.90;71.90;;;;;;5015902;28;20057;-82
2022/08/05 03:51:12;;;;;;;38.58;25.90;;;24.00;71.40;;;;;;5035277;28;20098;-82
2022/08/05 03:53:45;;;;;;;35.42;28.48;;;24.10;71.30;;;;;;5013473;28;20032;-82
2022/08/05 03:56:41;;;;;;;32.60;24.83;;;24.20;71.20;;;;;;5038298;28;20018;-82
2022/08/05 03:59:10;;;;;;;38.33;26.50;;;24.30;70.90;;;;;;5024612;28;20152;-82
2022/08/05 04:01:41;;;;;;;33.75;25.88;;;24.30;70.40;;;;;;5033439;28;20059;-83
2022/08/05 04:04:09;;;;;;;39.53;25.20;;;24.40;70.30;;;;;;5023874;28;20530;-82
2022/08/05 04:06:34;;;;;;;39.72;25.65;;;24.50;70.00;;;;;;5033550;28;20482;-82
2022/08/05 04:09:02;;;;;;;36.17;25.55;;;24.70;69.80;;;;;;5034077;28;20019;-82
2022/08/05 04:11:28;;;;;;;37.88;25.50;;;24.80;69.50;;;;;;5034605;28;20057;-82
2022/08/05 04:13:54;;;;;;;32.33;25.33;;;24.80;68.90;;;;;;5015878;28;20025;-83
2022/08/05 04:16:20;;;;;;;36.53;25.30;;;24.80;69.00;;;;;;5033450;28;20104;-84
2022/08/05 04:18:46;;;;;;;30.15;24.15;;;24.80;69.10;;;;;;5033407;28;20382;-83
2022/08/05 04:21:12;;;;;;;32.83;26.45;;;25.00;68.90;;;;;;5032373;28;20104;-83
2022/08/05 04:23:38;;;;;;;31.90;24.50;;;25.00;68.60;;;;;;5033138;28;20502;-82
2022/08/05 04:26:04;;;;;;;30.90;25.15;;;25.00;68.70;;;;;;5033312;28;20459;-83
2022/08/05 04:28:30;;;;;;;37.90;25.50;;;25.00;68.70;;;;;;5033305;28;20040;-83
2022/08/05 04:30:56;;;;;;;34.60;25.10;;;25.00;68.50;;;;;;5031920;28;20044;-86
2022/08/05 04:33:22;;;;;;;36.38;26.15;;;25.00;68.60;;;;;;5033127;28;20061;-84
2022/08/05 04:35:48;;;;;;;31.75;23.77;;;25.00;69.00;;;;;;5033424;28;20083;-84
2022/08/05 04:38:14;;;;;;;33.83;23.25;;;25.00;69.00;;;;;;5032742;28;20446;-82
2022/08/05 04:40:40;;;;;;;30.42;23.52;;;25.00;68.70;;;;;;5032775;28;20441;-85
2022/08/05 04:43:06;;;;;;;37.47;23.37;;;25.00;69.00;;;;;;5033067;28;20022;-82
2022/08/05 04:45:33;;;;;;;32.13;24.40;;;25.00;68.70;;;;;;5032748;28;20265;-83
2022/08/05 04:48:03;;;;;;;29.58;23.35;;;25.00;68.50;;;;;;5025603;28;20041;-84
2022/08/05 04:50:30;;;;;;;28.88;23.42;;;25.00;68.90;;;;;;5033433;28;20109;-82
2022/08/05 04:52:56;;;;;;;36.80;22.87;;;25.10;69.00;;;;;;5029624;28;20099;-84
2022/08/05 04:55:21;;;;;;;31.23;23.15;;;25.10;69.10;;;;;;5032901;28;20337;-82
2022/08/05 04:57:47;;;;;;;31.45;24.40;;;25.20;68.90;;;;;;5032155;28;20406;-82
2022/08/05 05:00:13;;;;;;;31.65;23.35;;;25.20;68.30;;;;;;5032790;28;20021;-83
2022/08/05 05:02:39;;;;;;;26.63;23.75;;;25.30;67.80;;;;;;5034480;28;20034;-82
2022/08/05 05:05:05;;;;;;;31.40;22.85;;;25.40;67.60;;;;;;5032519;28;20043;-83
2022/08/05 05:07:31;;;;;;;27.55;21.00;;;25.60;68.00;;;;;;5033134;28;20018;-84
2022/08/05 05:09:57;;;;;;;26.95;19.27;;;25.70;67.30;;;;;;5032876;28;20028;-84
2022/08/05 05:12:23;;;;;;;23.25;19.58;;;25.80;65.80;;;;;;5033044;28;20039;-83
2022/08/05 05:14:49;;;;;;;21.60;18.92;;;25.80;65.50;;;;;;5032922;28;20029;-83
2022/08/05 05:17:14;;;;;;;21.13;17.73;;;25.90;65.20;;;;;;5033225;28;20029;-86
2022/08/05 05:19:40;;;;;;;22.05;16.42;;;25.90;64.20;;;;;;5034066;28;20076;-82
2022/08/05 05:22:06;;;;;;;21.40;15.18;;;26.00;63.50;;;;;;5033227;28;20072;-83
2022/08/05 05:24:32;;;;;;;21.50;15.80;;;25.90;63.20;;;;;;5032655;28;20041;-82
2022/08/05 05:26:58;;;;;;;21.80;15.07;;;25.90;63.50;;;;;;5033412;28;20056;-83
2022/08/05 05:29:24;;;;;;;22.58;15.18;;;26.00;62.90;;;;;;5034119;28;20017;-84
2022/08/05 05:31:50;;;;;;;23.42;15.82;;;26.10;62.70;;;;;;5036759;28;20082;-83
2022/08/05 05:34:16;;;;;;;26.30;16.23;;;26.20;62.50;;;;;;5041661;28;20364;-83
2022/08/05 05:36:41;;;;;;;25.67;15.98;;;26.30;62.20;;;;;;5045695;28;20021;-84
2022/08/05 05:39:07;;;;;;;27.35;15.70;;;26.40;61.70;;;;;;5049299;28;20032;-83
2022/08/05 05:41:33;;;;;;;24.90;16.20;;;26.40;61.70;;;;;;5045707;28;20482;-84
2022/08/05 05:43:59;;;;;;;25.33;15.48;;;26.50;61.80;;;;;;5040184;28;20040;-85
2022/08/05 05:46:24;;;;;;;25.70;16.88;;;26.60;61.80;;;;;;5034106;28;20132;-84
2022/08/05 05:48:50;;;;;;;21.98;16.15;;;26.70;61.30;;;;;;5034147;28;20040;-85
2022/08/05 05:51:23;;;;;;;24.85;16.67;;;26.90;60.80;;;;;;5030284;28;20028;-83
2022/08/05 05:53:51;;;;;;;26.45;16.77;;;27.00;60.50;;;;;;5031590;28;20021;-84
2022/08/05 05:56:19;;;;;;;23.65;16.38;;;27.10;60.20;;;;;;5024603;28;20070;-84
2022/08/05 05:58:46;;;;;;;24.70;16.02;;;27.30;59.60;;;;;;5031714;28;20379;-83
2022/08/05 06:01:13;;;;;;;30.98;16.02;;;27.40;59.50;;;;;;5013800;28;20037;-84
2022/08/05 06:03:40;;;;;;;22.33;14.85;;;27.60;58.60;;;;;;5027776;28;20040;-84
2022/08/05 06:06:06;;;;;;;24.63;16.25;;;27.70;58.40;;;;;;5031618;28;20037;-82
2022/08/05 06:08:32;;;;;;;28.90;17.23;;;27.80;57.90;;;;;;5030596;28;20169;-85
2022/08/05 06:10:58;;;;;;;20.05;15.23;;;28.00;58.00;;;;;;5021219;28;20045;-83
2022/08/05 06:13:24;;;;;;;26.00;15.13;;;28.10;58.20;;;;;;5032265;28;20495;-85
2022/08/05 06:15:50;;;;;;;25.23;15.57;;;28.30;57.00;;;;;;5030732;28;20057;-84
2022/08/05 06:18:16;;;;;;;20.80;15.40;;;28.40;56.20;;;;;;5031332;28;20108;-84
2022/08/05 06:20:41;;;;;;;21.35;15.05;;;28.60;56.50;;;;;;5030788;28;20382;-84
2022/08/05 06:23:07;;;;;;;21.02;15.20;;;28.90;56.30;;;;;;5031007;28;20529;-83
2022/08/05 06:25:33;;;;;;;19.27;14.77;;;29.40;55.40;;;;;;5031237;28;20097;-84
2022/08/05 06:27:59;;;;;;;26.65;15.93;;;29.80;54.50;;;;;;5031239;28;20025;-82
2022/08/05 06:30:26;;;;;;;22.63;14.93;;;30.00;53.80;;;;;;5031187;28;20029;-84
2022/08/05 06:32:52;;;;;;;20.73;15.05;;;30.40;53.00;;;;;;5030694;28;20021;-84
2022/08/05 06:35:18;;;;;;;24.37;14.40;;;31.00;52.50;;;;;;5031373;28;20042;-83
2022/08/05 06:37:44;;;;;;;18.85;14.63;;;32.50;49.80;;;;;;5033583;28;20255;-83
2022/08/05 06:40:11;;;;;;;19.50;13.53;;;32.50;49.90;;;;;;5035384;28;20490;-80
2022/08/05 06:42:42;;;;;;;19.38;13.07;;;34.30;48.10;;;;;;5028981;28;20041;-84
2022/08/05 06:45:08;;;;;;;25.77;13.23;;;35.30;45.50;;;;;;5031621;28;20079;-83
2022/08/05 06:47:34;;;;;;;24.17;13.43;;;35.40;44.10;;;;;;5031363;28;20162;-83
2022/08/05 06:50:00;;;;;;;21.90;14.60;;;35.30;44.20;;;;;;5031317;28;20075;-83
2022/08/05 06:52:26;;;;;;;25.60;13.60;;;35.60;44.50;;;;;;5039019;28;20379;-82
2022/08/05 06:54:52;;;;;;;19.60;13.27;;;36.60;43.50;;;;;;5036946;28;20498;-82
2022/08/05 06:57:17;;;;;;;17.53;13.53;;;37.70;42.10;;;;;;5030203;28;20053;-82
2022/08/05 06:59:44;;;;;;;17.87;13.07;;;38.30;41.10;;;;;;5031457;28;20278;-83
2022/08/05 07:02:09;;;;;;;22.50;12.98;;;38.50;40.10;;;;;;5031043;28;20040;-83
2022/08/05 07:04:35;;;;;;;15.77;12.80;;;38.80;39.80;;;;;;5030128;28;20029;-82
2022/08/05 07:07:01;;;;;;;23.58;13.23;;;;;;;;;;5031119;28;20060;-81
2022/08/05 07:09:27;;;;;;;21.27;12.85;;;;;;;;;;5031216;28;20479;-82
2022/08/05 07:11:55;;;;;;;20.75;11.73;;;;;;;;;;5031403;28;20140;-83
2022/08/05 07:17:06;;;;;;;18.95;11.32;;;;;;;;;;5026534;28;20117;-83
2022/08/05 07:19:32;;;;;;;;;;;40.80;38.60;;;;;;5032845;28;20025;-83
2022/08/05 07:21:58;;;;;;;19.10;10.88;;;43.30;36.40;;;;;;5034518;28;20289;-82
2022/08/05 07:24:23;;;;;;;;;;;43.90;35.30;;;;;;5035185;28;20022;-82
2022/08/05 07:26:50;;;;;;;13.55;9.85;;;44.30;36.00;;;;;;5017095;28;19930;-83
2022/08/05 07:29:15;;;;;;;12.20;9.60;;;44.90;33.70;;;;;;5034414;28;20475;-82
2022/08/05 07:31:42;;;;;;;15.38;9.60;;;44.30;32.40;;;;;;5034289;28;20032;-82
2022/08/05 07:34:08;;;;;;;14.02;9.20;;;43.60;33.20;;;;;;5033229;28;20049;-83
2022/08/05 07:36:34;;;;;;;14.50;9.77;;;43.20;33.60;;;;;;5034871;28;20101;-82
2022/08/05 07:39:02;;;;;;;15.38;9.63;;;43.90;34.20;;;;;;5035275;28;20494;-83
2022/08/05 07:41:28;;;;;;;17.63;8.02;;;;;;;;;;5033516;28;20124;-81
2022/08/05 07:43:55;;;;;;;13.15;8.25;;;44.80;32.90;;;;;;5034286;28;20021;-83
2022/08/05 07:46:21;;;;;;;15.30;7.93;;;;;;;;;;5035155;28;20025;-81
2022/08/05 07:48:47;;;;;;;11.75;7.05;;;45.80;31.10;;;;;;5016413;28;20041;-83
2022/08/05 07:51:14;;;;;;;10.52;7.03;;;46.20;30.90;;;;;;5035812;28;20420;-83
2022/08/05 07:53:41;;;;;;;8.85;6.82;;;46.30;30.20;;;;;;5034407;28;20037;-83
2022/08/05 07:56:07;;;;;;;10.90;7.13;;;45.60;30.80;;;;;;5034315;28;20036;-82
2022/08/05 07:58:33;;;;;;;14.25;7.50;;;;;;;;;;5033892;28;20390;-83
2022/08/05 08:00:59;;;;;;;10.45;7.30;;;;;;;;;;5033758;28;20026;-83
2022/08/05 08:03:25;;;;;;;10.50;6.72;;;;;;;;;;5033689;28;20571;-82
2022/08/05 08:05:51;;;;;;;9.13;6.55;;;;;;;;;;5032889;28;20025;-83
2022/08/05 08:08:18;;;;;;;6.50;5.80;;;;;;;;;;5033795;28;20041;-83
2022/08/05 08:10:44;;;;;;;8.73;6.07;;;;;;;;;;5033348;28;20041;-82
2022/08/05 08:13:10;;;;;;;7.35;6.10;;;;;;;;;;5031503;28;20556;-83
2022/08/05 08:15:36;;;;;;;6.45;5.78;;;;;;;;;;5033303;28;20100;-83
2022/08/05 08:18:03;;;;;;;9.95;5.80;;;;;;;;;;5033647;28;20393;-81
2022/08/05 08:20:29;;;;;;;8.68;6.15;;;;;;;;;;5033048;28;20494;-81
2022/08/05 08:23:01;;;;;;;5.55;4.95;;;;;;;;;;5031802;28;20066;-82
2022/08/05 08:25:28;;;;;;;9.10;5.45;;;;;;;;;;5033153;28;20018;-83
2022/08/05 08:27:54;;;;;;;8.82;5.82;;;;;;;;;;5033200;28;20021;-84
2022/08/05 08:30:20;;;;;;;11.50;5.43;;;;;;;;;;5032468;28;20520;-81
2022/08/05 08:32:46;;;;;;;7.90;5.68;;;;;;;;;;5031934;28;20515;-82
2022/08/05 08:35:13;;;;;;;9.45;5.25;;;;;;;;;;5033088;28;20517;-83
2022/08/05 08:37:39;;;;;;;10.75;5.25;;;;;;;;;;5031509;28;20025;-82
2022/08/05 08:40:05;;;;;;;7.35;4.82;;;;;;;;;;5032783;28;20033;-82
2022/08/05 08:42:32;;;;;;;7.72;4.47;;;;;;;;;;5032770;28;20072;-83
2022/08/05 08:44:59;;;;;;;7.95;4.70;;;;;;;;;;5032506;28;20033;-84
2022/08/05 08:47:26;;;;;;;7.82;5.13;;;;;;;;;;5032876;28;20033;-81
2022/08/05 08:49:57;;;;;;;9.15;5.32;;;;;;;;;;5033583;28;20541;-81
2022/08/05 08:52:24;;;;;;;12.07;5.57;;;;;;;;;;5032631;28;20490;-82
2022/08/05 08:54:52;;;;;;;8.77;5.22;;;;;;;;;;5032418;28;20049;-83
2022/08/05 08:57:18;;;;;;;7.75;5.53;;;;;;;;;;5032474;28;20032;-82
2022/08/05 08:59:44;;;;;;;8.02;5.35;;;;;;;;;;5032706;28;20037;-83
2022/08/05 09:02:11;;;;;;;5.78;4.50;;;;;;;;;;5032243;28;20059;-82
2022/08/05 09:04:38;;;;;;;7.43;4.70;;;;;;;;;;5031780;28;20025;-84
2022/08/05 09:07:05;;;;;;;5.03;4.50;;;;;;;;;;5032056;28;20087;-84
2022/08/05 09:09:32;;;;;;;8.65;6.38;;;;;;;;;;5032460;28;20374;-83
2022/08/05 09:11:58;;;;;;;11.70;5.65;;;;;;;;;;5031937;28;20132;-82
2022/08/05 09:14:25;;;;;;;7.78;5.75;;;;;;;;;;5032328;28;20049;-83
2022/08/05 09:16:51;;;;;;;11.52;6.00;;;;;;;;;;5032864;28;20031;-81
2022/08/05 09:19:17;;;;;;;11.25;5.50;;;;;;;;;;5033810;28;20101;-83
2022/08/05 09:21:43;;;;;;;7.68;5.53;;;;;;;;;;5032489;28;20034;-83
2022/08/05 09:24:11;;;;;;;9.57;5.80;;;;;;;;;;5031899;28;20073;-83
2022/08/05 09:26:38;;;;;;;13.15;5.97;;;;;;;;;;5032092;28;20033;-83
2022/08/05 09:29:06;;;;;;;7.10;5.25;;;;;;;;;;5032009;28;20022;-82
2022/08/05 09:31:33;;;;;;;9.25;7.35;;;;;;;;;;5032006;28;20077;-82
2022/08/05 09:34:00;;;;;;;10.35;5.75;;;;;;;;;;5032183;28;20021;-82
2022/08/05 09:36:48;;;;;;;10.43;6.25;;;;;;;;;;5047326;28;20091;-83
2022/08/05 09:39:16;;;;;;;9.38;5.28;;;;;;;;;;5030570;28;20022;-82
2022/08/05 09:41:55;;;;;;;14.65;7.93;;;;;;;;;;5029804;28;20026;-82
2022/08/05 09:44:42;;;;;;;7.63;6.13;;;;;;;;;;5032454;28;20033;-83
2022/08/05 09:47:09;;;;;;;10.30;6.68;;;;;;;;;;5018082;28;20072;-82
2022/08/05 09:49:39;;;;;;;6.43;5.82;;;;;;;;;;5032217;28;20033;-82
2022/08/05 09:52:25;;;;;;;9.32;6.07;;;;;;;;;;5030947;28;20048;-84
2022/08/05 09:55:08;;;;;;;6.90;5.88;;;;;;;;;;5035559;28;20029;-81
2022/08/05 09:57:37;;;;;;;6.63;5.95;;;;;;;;;;5032466;28;20561;-84
2022/08/05 10:00:11;;;;;;;8.65;5.95;;;;;;;;;;5030577;28;20103;-83
2022/08/05 10:02:41;;;;;;;12.30;6.55;;;;;;;;;;5031200;28;20073;-83
2022/08/05 10:05:10;;;;;;;8.75;5.88;;;;;;;;;;5031511;28;20134;-82
2022/08/05 10:08:02;;;;;;;8.48;6.38;;;;;;;;;;5031583;28;20017;-83
2022/08/05 10:10:43;;;;;;;9.43;6.82;;;45.00;28.40;;;;;;5026398;28;20041;-84
2022/08/05 10:13:10;;;;;;;11.18;7.18;;;44.40;29.40;;;;;;5031420;28;20035;-83
2022/08/05 10:15:38;;;;;;;8.27;7.43;;;42.40;30.00;;;;;;5030339;28;20071;-82
2022/08/05 10:18:21;;;;;;;9.13;8.23;;;40.70;31.30;;;;;;5031628;28;20382;-83
2022/08/05 10:20:50;;;;;;;11.57;7.38;;;39.40;33.10;;;;;;5014053;28;20234;-84
2022/08/05 10:23:24;;;;;;;9.55;8.45;;;40.00;33.00;;;;;;5031233;28;20037;-83
2022/08/05 10:25:50;;;;;;;11.90;7.90;;;41.30;32.10;;;;;;5034221;28;20106;-83
2022/08/05 10:28:16;;;;;;;;;;;42.50;31.30;;;;;;5031611;28;20064;-82
2022/08/05 10:30:42;;;;;;;9.93;7.50;;;43.10;30.90;;;;;;5044883;28;19911;-83
2022/08/05 10:33:08;;;;;;;9.85;7.50;;;43.60;30.50;;;;;;5030678;28;20026;-82
2022/08/05 10:35:34;;;;;;;;;;;42.90;30.70;;;;;;5031983;28;20037;-82
2022/08/05 10:38:01;;;;;;;9.65;7.82;;;41.60;31.10;;;;;;5031189;28;20004;-84
2022/08/05 10:40:30;;;;;;;9.30;8.25;;;40.20;32.80;;;;;;5031210;28;20021;-85
2022/08/05 10:43:03;;;;;;;12.13;8.85;;;39.20;33.70;;;;;;5031165;28;20030;-82
2022/08/05 10:45:29;;;;;;;9.85;8.90;;;38.30;34.20;;;;;;5031115;28;20026;-83
2022/08/05 10:47:55;;;;;;;11.73;9.15;;;37.50;35.50;;;;;;5030185;28;20029;-82
2022/08/05 10:50:21;;;;;;;10.98;8.65;;;37.10;35.90;;;;;;5031316;28;20028;-83
2022/08/05 10:52:55;;;;;;;11.65;8.43;;;36.80;36.30;;;;;;5030931;28;20025;-84
2022/08/05 10:55:23;;;;;;;10.30;9.15;;;36.60;36.70;;;;;;5033726;28;20808;-82
2022/08/05 10:58:07;;;;;;;11.45;8.82;;;36.30;37.10;;;;;;5035444;28;20082;-83
2022/08/05 11:00:33;;;;;;;10.57;9.63;;;36.10;37.10;;;;;;5034835;28;20020;-83
2022/08/05 11:03:05;;;;;;;13.27;10.20;;;35.70;37.80;;;;;;5034491;28;20038;-83
2022/08/05 11:05:32;;;;;;;12.65;10.77;;;35.50;38.00;;;;;;5033608;28;20278;-83
2022/08/05 11:08:04;;;;;;;12.85;9.75;;;35.40;38.20;;;;;;5034577;28;20101;-84
2022/08/05 11:10:31;;;;;;;12.70;9.93;;;35.00;38.80;;;;;;5034606;28;20029;-84
2022/08/05 11:12:58;;;;;;;14.55;10.45;;;34.70;39.10;;;;;;5034781;28;20014;-84
2022/08/05 11:15:28;;;;;;;13.27;9.52;;;34.60;39.10;;;;;;5033827;28;20040;-84
2022/08/05 11:18:13;;;;;;;11.68;9.93;;;34.40;39.40;;;;;;5034840;28;20470;-84
2022/08/05 11:20:40;;;;;;;15.07;10.55;;;34.10;39.90;;;;;;5033646;28;20075;-84
2022/08/05 11:23:43;;;;;;;12.73;10.13;;;33.90;40.50;;;;;;5034659;28;20029;-82
2022/08/05 11:26:16;;;;;;;15.43;10.60;;;33.70;40.30;;;;;;5033589;28;20031;-83
2022/08/05 11:28:47;;;;;;;14.07;9.52;;;33.30;41.20;;;;;;5034295;28;20100;-82
2022/08/05 11:31:13;;;;;;;12.43;10.63;;;33.20;42.40;;;;;;5034270;28;20076;-82
2022/08/05 11:33:45;;;;;;;13.40;9.57;;;33.10;42.10;;;;;;5034777;28;20038;-82
2022/08/05 11:36:13;;;;;;;12.38;9.73;;;33.10;41.90;;;;;;5030653;28;20056;-81
2022/08/05 11:38:41;;;;;;;14.23;10.30;;;32.90;42.10;;;;;;5024928;28;20022;-83
2022/08/05 11:41:17;;;;;;;11.93;9.70;;;32.90;42.30;;;;;;5035083;28;20045;-83
2022/08/05 11:43:56;;;;;;;12.05;10.57;;;32.80;42.30;;;;;;5023788;28;20025;-84
2022/08/05 11:46:31;;;;;;;11.18;10.07;;;32.80;42.30;;;;;;5042831;28;20081;-81
2022/08/05 11:48:58;;;;;;;13.35;10.75;;;32.80;42.00;;;;;;5022407;28;20490;-82
2022/08/05 11:51:25;;;;;;;11.23;10.07;;;32.60;42.00;;;;;;5044245;28;20025;-83
2022/08/05 11:53:52;;;;;;;11.40;10.40;;;32.50;42.50;;;;;;5037629;28;20124;-81
2022/08/05 11:56:18;;;;;;;11.50;10.38;;;;;;;;;;5037565;28;20033;-81
2022/08/05 11:58:46;;;;;;;13.37;10.40;;;32.40;43.10;;;;;;5041120;28;20533;-82
2022/08/05 12:01:18;;;;;;;12.30;11.10;;;32.30;42.90;;;;;;5034357;28;20377;-83
2022/08/05 12:03:46;;;;;;;16.00;9.82;;;32.30;42.80;;;;;;5033609;28;20036;-83
2022/08/05 12:06:14;;;;;;;14.38;10.38;;;32.10;43.10;;;;;;5033933;28;20167;-84
2022/08/05 12:08:48;;;;;;;15.43;9.88;;;32.10;43.10;;;;;;5034838;28;20047;-82
2022/08/05 12:11:20;;;;;;;13.35;11.68;;;32.00;43.40;;;;;;5032150;28;20053;-83
2022/08/05 12:13:56;;;;;;;13.80;10.70;;;32.00;43.80;;;;;;5032683;28;20379;-83
2022/08/05 12:16:24;;;;;;;17.13;9.68;;;31.80;43.70;;;;;;5034454;28;20022;-83
2022/08/05 12:18:50;;;;;;;11.52;9.27;;;31.70;44.00;;;;;;5034863;28;20029;-83
2022/08/05 12:21:18;;;;;;;9.50;8.50;;;31.70;43.80;;;;;;5036679;28;20029;-82
2022/08/05 12:23:59;;;;;;;9.30;8.25;;;31.80;42.60;;;;;;5034496;28;20026;-83
2022/08/05 12:26:40;;;;;;;12.48;9.18;;;31.60;42.30;;;;;;5014823;28;20032;-83
2022/08/05 12:29:14;;;;;;;12.73;8.55;;;31.40;43.00;;;;;;5027747;28;20119;-83
2022/08/05 12:31:45;;;;;;;11.75;8.68;;;31.50;42.80;;;;;;5032678;28;20029;-83
2022/08/05 12:34:11;;;;;;;12.02;9.13;;;31.50;42.70;;;;;;5032711;28;20045;-83
2022/08/05 12:36:38;;;;;;;11.57;9.23;;;31.40;42.80;;;;;;5035445;28;20069;-84
2022/08/05 12:39:05;;;;;;;10.05;8.45;;;31.40;42.50;;;;;;5032639;28;20022;-83
2022/08/05 12:41:33;;;;;;;12.20;9.15;;;31.40;42.60;;;;;;5031832;28;20043;-83
2022/08/05 12:44:11;;;;;;;9.77;8.38;;;31.40;42.70;;;;;;5031104;28;20029;-83
2022/08/05 12:46:38;;;;;;;9.23;8.30;;;31.50;42.70;;;;;;5014414;28;20606;-84
2022/08/05 12:49:05;;;;;;;9.90;8.93;;;31.50;42.10;;;;;;5032537;28;20390;-83
2022/08/05 12:51:41;;;;;;;;;;;31.50;41.90;;;;;;5032452;28;20033;-84
2022/08/05 12:54:08;;;;;;;8.25;7.50;;;31.50;41.80;;;;;;5031888;28;20389;-83
2022/08/05 12:56:41;;;;;;;9.00;8.07;;;31.40;41.80;;;;;;5030450;28;20037;-84
2022/08/05 12:59:17;;;;;;;10.55;7.60;;;31.30;42.00;;;;;;5032223;28;20033;-85
2022/08/05 13:01:52;;;;;;;16.95;8.05;;;31.20;42.40;;;;;;5027696;28;20033;-83
2022/08/05 13:04:18;;;;;;;10.13;7.50;;;31.20;41.80;;;;;;5038513;28;20032;-85
2022/08/05 13:06:45;;;;;;;8.13;7.38;;;31.20;41.40;;;;;;5023711;28;20069;-83